Dunlap, Iowa
Current Conditions -  °F | °C
As of 6:55 PM on Wednesday 22 Oct 2014 (Local Time) from KDNS Reporting Station
Clear Clear  
Wind Chill: 64°   Ceiling: Unl
Heat Index: 64°   Visibility: 10mi
Dew Point: 52°   Wind: 15mph
Humidity: 64%   Direction: 150°SSE
Pressure: 29.99"   Gusts: 22mph
Location:  41.85°N, 95.6°W
Report Text: KDNS 222355Z AUTO 15013G19KT 10SM CLR 18/11 A2999 RMK AO2
Loading
Personal Weather Stations






























Interactive Weather Map
Tropical Storm Tracking
New forecast layout! Learn more

10-Day Weather Forecast

Advertisements
Track Severe Weather on mobile